Time;durP1;ratioP1;P1;durP2;ratioP2;P2;SDS_P1;SDS_P2;PMS_P1;PMS_P2;Temp;Humidity;BMP_temperature;BMP_pressure;BME280_temperature;BME280_humidity;BME280_pressure;Samples;Min_cycle;Max_cycle;Signal;HPM_P1;HPM_P2
2021/08/25 00:01:34;;;;;;;8.15;6.05;;;16.90;99.90;;;;;;5061658;28;20044;-75
2021/08/25 00:04:00;;;;;;;8.50;5.63;;;16.80;99.90;;;;;;5069929;28;20050;-75
2021/08/25 00:06:26;;;;;;;9.80;6.20;;;16.80;99.90;;;;;;5068865;28;20029;-75
2021/08/25 00:08:52;;;;;;;8.38;5.65;;;16.80;99.90;;;;;;5062812;28;20025;-75
2021/08/25 00:11:18;;;;;;;10.45;6.57;;;16.80;99.90;;;;;;5060169;28;20029;-75
2021/08/25 00:13:44;;;;;;;7.97;5.00;;;16.80;99.90;;;;;;5064744;28;20115;-75
2021/08/25 00:16:11;;;;;;;10.55;6.03;;;16.70;99.90;;;;;;5069642;28;20162;-75
2021/08/25 00:18:37;;;;;;;8.75;5.43;;;16.70;99.90;;;;;;5071069;28;20085;-75
2021/08/25 00:21:03;;;;;;;10.25;6.28;;;16.70;99.90;;;;;;5073489;28;20546;-75
2021/08/25 00:23:29;;;;;;;8.60;5.88;;;16.80;99.90;;;;;;5069453;28;20032;-75
2021/08/25 00:25:56;;;;;;;7.55;5.22;;;16.70;99.90;;;;;;5067756;28;20505;-75
2021/08/25 00:28:22;;;;;;;8.90;5.50;;;16.80;99.90;;;;;;5070221;28;20081;-75
2021/08/25 00:30:47;;;;;;;7.60;5.10;;;16.70;99.90;;;;;;5073477;28;20036;-75
2021/08/25 00:33:13;;;;;;;7.63;5.25;;;16.70;99.90;;;;;;5064227;28;20111;-76
2021/08/25 00:35:38;;;;;;;8.60;5.72;;;16.70;99.90;;;;;;5066825;28;20037;-75
2021/08/25 00:38:04;;;;;;;8.02;5.80;;;16.70;99.90;;;;;;5067613;28;20116;-75
2021/08/25 00:40:30;;;;;;;8.52;5.63;;;16.70;99.90;;;;;;5062988;28;20025;-75
2021/08/25 00:43:07;;;;;;;13.90;6.90;;;16.70;99.90;;;;;;5074013;28;20646;-75
2021/08/25 00:45:38;;;;;;;6.55;5.68;;;16.70;99.90;;;;;;5065229;28;20043;-75
2021/08/25 00:48:04;;;;;;;7.30;5.47;;;16.70;99.90;;;;;;5046861;28;20029;-75
2021/08/25 00:50:30;;;;;;;7.30;5.20;;;16.60;99.90;;;;;;5071802;28;20073;-74
2021/08/25 00:52:56;;;;;;;9.05;6.07;;;16.60;99.90;;;;;;5051268;28;20028;-74
2021/08/25 00:55:22;;;;;;;6.85;5.45;;;16.50;99.90;;;;;;5053398;28;20564;-75
2021/08/25 00:57:48;;;;;;;6.85;4.78;;;16.50;99.90;;;;;;5064925;28;20382;-75
2021/08/25 01:00:14;;;;;;;8.45;5.18;;;16.50;99.90;;;;;;5064708;28;20021;-75
2021/08/25 01:02:43;;;;;;;9.00;5.82;;;16.50;99.90;;;;;;5063802;28;20059;-75
2021/08/25 01:05:09;;;;;;;8.77;5.03;;;16.50;99.90;;;;;;5052939;28;20033;-75
2021/08/25 01:07:37;;;;;;;9.27;6.00;;;16.50;99.90;;;;;;5067402;28;20029;-75
2021/08/25 01:10:21;;;;;;;7.72;6.47;;;16.50;99.90;;;;;;5072998;28;20066;-75
2021/08/25 01:12:47;;;;;;;9.38;6.60;;;16.50;99.90;;;;;;5064118;28;20372;-75
2021/08/25 01:15:12;;;;;;;12.13;6.50;;;16.50;99.90;;;;;;5048977;28;20041;-76
2021/08/25 01:17:39;;;;;;;8.02;6.65;;;16.40;99.90;;;;;;5064530;28;20025;-75
2021/08/25 01:20:13;;;;;;;11.27;6.38;;;16.40;99.90;;;;;;5050598;28;20119;-75
2021/08/25 01:22:41;;;;;;;7.40;5.88;;;16.30;99.90;;;;;;5061614;28;20055;-75
2021/08/25 01:25:09;;;;;;;8.82;6.38;;;16.30;99.90;;;;;;5049485;28;20401;-74
2021/08/25 01:27:43;;;;;;;9.98;6.40;;;16.30;99.90;;;;;;5070145;28;20051;-75
2021/08/25 01:30:10;;;;;;;8.95;6.60;;;16.30;99.90;;;;;;5072516;28;20017;-75
2021/08/25 01:32:40;;;;;;;11.90;7.28;;;16.30;99.90;;;;;;5071167;28;20082;-75
2021/08/25 01:35:07;;;;;;;9.27;7.03;;;16.30;99.90;;;;;;5062857;28;20036;-75
2021/08/25 01:37:33;;;;;;;12.00;7.63;;;16.30;99.90;;;;;;5065961;28;20051;-75
2021/08/25 01:39:59;;;;;;;9.32;6.90;;;16.20;99.90;;;;;;5065628;28;20033;-75
2021/08/25 01:42:25;;;;;;;9.63;7.40;;;16.20;99.90;;;;;;5070254;28;20063;-75
2021/08/25 01:44:52;;;;;;;10.55;8.30;;;16.20;99.90;;;;;;5065929;28;20714;-75
2021/08/25 01:47:19;;;;;;;11.80;7.15;;;16.10;99.90;;;;;;5066078;28;20075;-74
2021/08/25 01:49:45;;;;;;;10.27;7.05;;;16.10;99.90;;;;;;5067222;28;20099;-75
2021/08/25 01:52:16;;;;;;;10.20;7.18;;;16.10;99.90;;;;;;5064322;28;20103;-76
2021/08/25 01:54:42;;;;;;;9.05;7.85;;;16.10;99.90;;;;;;5064154;28;20223;-75
2021/08/25 01:57:09;;;;;;;8.65;7.15;;;16.10;99.90;;;;;;5071384;28;20017;-75
2021/08/25 01:59:38;;;;;;;9.50;6.22;;;16.00;99.90;;;;;;5052858;28;20017;-75
2021/08/25 02:02:04;;;;;;;10.05;6.95;;;16.00;99.90;;;;;;5063682;28;20020;-75
2021/08/25 02:04:30;;;;;;;8.25;6.80;;;16.00;99.90;;;;;;5062459;28;20044;-75
2021/08/25 02:06:56;;;;;;;12.32;8.02;;;16.00;99.90;;;;;;5067827;28;20040;-76
2021/08/25 02:09:22;;;;;;;10.50;7.53;;;16.00;99.90;;;;;;5065622;28;20025;-75
2021/08/25 02:11:48;;;;;;;9.93;7.32;;;15.90;99.90;;;;;;5062003;28;20024;-75
2021/08/25 02:14:14;;;;;;;10.20;6.75;;;15.90;99.90;;;;;;5067088;28;20020;-75
2021/08/25 02:16:40;;;;;;;11.63;6.88;;;15.90;99.90;;;;;;5065415;28;20354;-75
2021/08/25 02:19:06;;;;;;;9.85;7.30;;;15.90;99.90;;;;;;5067026;28;20035;-75
2021/08/25 02:21:32;;;;;;;8.35;6.75;;;15.80;99.90;;;;;;5065507;28;20032;-75
2021/08/25 02:23:58;;;;;;;9.45;6.15;;;15.80;99.90;;;;;;5070633;28;20480;-75
2021/08/25 02:26:23;;;;;;;10.13;7.70;;;15.80;99.90;;;;;;5070011;28;20025;-75
2021/08/25 02:28:52;;;;;;;9.05;7.18;;;15.80;99.90;;;;;;5066652;28;20462;-75
2021/08/25 02:31:18;;;;;;;11.93;7.07;;;15.80;99.90;;;;;;5062762;28;20119;-75
2021/08/25 02:33:44;;;;;;;9.30;6.45;;;15.80;99.90;;;;;;5049705;28;20028;-75
2021/08/25 02:36:11;;;;;;;11.70;7.72;;;15.80;99.90;;;;;;5071227;28;20036;-76
2021/08/25 02:38:39;;;;;;;10.23;7.38;;;15.80;99.90;;;;;;5064336;28;20020;-75
2021/08/25 02:41:07;;;;;;;11.25;7.43;;;15.70;99.90;;;;;;5069046;28;20100;-75
2021/08/25 02:43:33;;;;;;;12.18;6.82;;;15.70;99.90;;;;;;5063053;28;20024;-75
2021/08/25 02:45:59;;;;;;;13.07;7.97;;;15.60;99.90;;;;;;5049374;28;20025;-75
2021/08/25 02:48:25;;;;;;;10.13;7.47;;;15.60;99.90;;;;;;5063011;28;20040;-75
2021/08/25 02:50:50;;;;;;;9.63;7.20;;;15.60;99.90;;;;;;5067042;28;20021;-75
2021/08/25 02:53:17;;;;;;;13.15;8.10;;;15.60;99.90;;;;;;5063623;28;20036;-75
2021/08/25 02:55:44;;;;;;;10.82;8.60;;;15.60;99.90;;;;;;5066801;28;20059;-75
2021/08/25 02:58:09;;;;;;;11.20;7.82;;;15.60;99.90;;;;;;5064959;28;20021;-75
2021/08/25 03:00:35;;;;;;;10.85;7.97;;;15.60;99.90;;;;;;5057874;28;20562;-75
2021/08/25 03:03:01;;;;;;;11.02;7.88;;;15.60;99.90;;;;;;5065545;28;20024;-76
2021/08/25 03:05:28;;;;;;;9.18;7.43;;;15.60;99.90;;;;;;5061545;28;20028;-75
2021/08/25 03:07:53;;;;;;;11.18;8.02;;;15.50;99.90;;;;;;5046204;28;20027;-75
2021/08/25 03:10:19;;;;;;;9.38;7.68;;;15.50;99.90;;;;;;5061080;28;20028;-74
2021/08/25 03:12:45;;;;;;;9.70;7.85;;;15.50;99.90;;;;;;5066492;28;20027;-75
2021/08/25 03:15:11;;;;;;;10.27;8.57;;;15.50;99.90;;;;;;5066538;28;20520;-75
2021/08/25 03:17:36;;;;;;;10.93;8.75;;;15.50;99.90;;;;;;5065955;28;20114;-74
2021/08/25 03:20:07;;;;;;;14.82;8.43;;;15.40;99.90;;;;;;5058999;28;20056;-75
2021/08/25 03:22:33;;;;;;;10.20;8.68;;;15.40;99.90;;;;;;5060140;28;20029;-74
2021/08/25 03:24:59;;;;;;;9.77;8.57;;;15.40;99.90;;;;;;5060602;28;20024;-74
2021/08/25 03:27:25;;;;;;;10.40;8.40;;;15.40;99.90;;;;;;5061790;28;20035;-75
2021/08/25 03:29:50;;;;;;;12.40;8.25;;;15.30;99.90;;;;;;5069648;28;20393;-74
2021/08/25 03:32:16;;;;;;;10.70;8.00;;;15.30;99.90;;;;;;5068293;28;20021;-75
2021/08/25 03:34:42;;;;;;;11.50;8.25;;;15.20;99.90;;;;;;5063674;28;20373;-75
2021/08/25 03:37:07;;;;;;;9.10;8.00;;;15.30;99.90;;;;;;5068080;28;20084;-75
2021/08/25 03:39:33;;;;;;;12.05;8.50;;;15.30;99.90;;;;;;5060698;28;20060;-75
2021/08/25 03:41:59;;;;;;;12.02;8.68;;;15.20;99.90;;;;;;5062084;28;20461;-75
2021/08/25 03:44:25;;;;;;;11.52;8.75;;;15.20;99.90;;;;;;5062643;28;20033;-75
2021/08/25 03:46:50;;;;;;;11.35;8.63;;;15.20;99.90;;;;;;5072061;28;20031;-75
2021/08/25 03:49:16;;;;;;;11.25;7.78;;;15.20;99.90;;;;;;5049263;28;20099;-75
2021/08/25 03:51:42;;;;;;;11.82;9.82;;;15.20;99.90;;;;;;5061434;28;20029;-75
2021/08/25 03:54:08;;;;;;;10.60;9.38;;;15.20;99.90;;;;;;5064490;28;20117;-77
2021/08/25 03:56:33;;;;;;;10.30;8.57;;;15.20;99.90;;;;;;5063249;28;20060;-75
2021/08/25 03:58:59;;;;;;;11.23;9.18;;;15.10;99.90;;;;;;5053405;28;20103;-75
2021/08/25 04:01:25;;;;;;;12.38;8.52;;;15.10;99.90;;;;;;5064003;28;20388;-75
2021/08/25 04:03:50;;;;;;;12.38;8.80;;;15.00;99.90;;;;;;5046954;28;20048;-75
2021/08/25 04:06:16;;;;;;;14.13;8.55;;;15.00;99.90;;;;;;5064159;28;20040;-74
2021/08/25 04:08:42;;;;;;;10.60;8.38;;;15.00;99.90;;;;;;5056087;28;20112;-75
2021/08/25 04:11:08;;;;;;;9.48;8.50;;;14.90;99.90;;;;;;5063121;28;20017;-75
2021/08/25 04:13:33;;;;;;;10.88;8.75;;;14.90;99.90;;;;;;5061671;28;20492;-75
2021/08/25 04:15:59;;;;;;;10.88;8.25;;;14.90;99.90;;;;;;5067194;28;20032;-75
2021/08/25 04:18:25;;;;;;;12.85;8.98;;;14.90;99.90;;;;;;5063590;28;20562;-75
2021/08/25 04:20:52;;;;;;;10.25;8.85;;;14.80;99.90;;;;;;5051831;28;20029;-75
2021/08/25 04:23:18;;;;;;;10.70;7.82;;;14.80;99.90;;;;;;5067117;28;20035;-75
2021/08/25 04:25:44;;;;;;;9.27;8.00;;;14.80;99.90;;;;;;5071481;28;20499;-75
2021/08/25 04:28:10;;;;;;;11.38;8.30;;;14.80;99.90;;;;;;5063372;28;20024;-75
2021/08/25 04:30:36;;;;;;;9.00;7.85;;;14.80;99.90;;;;;;5063173;28;20115;-75
2021/08/25 04:33:02;;;;;;;13.13;8.55;;;14.80;99.90;;;;;;5046366;28;20025;-75
2021/08/25 04:35:28;;;;;;;16.20;10.68;;;14.70;99.90;;;;;;5062364;28;20493;-75
2021/08/25 04:37:54;;;;;;;9.60;7.25;;;14.70;99.90;;;;;;5066600;28;20055;-75
2021/08/25 04:40:19;;;;;;;9.95;8.27;;;14.60;99.90;;;;;;5068666;28;20060;-75
2021/08/25 04:42:45;;;;;;;11.88;7.32;;;14.60;99.90;;;;;;5065889;28;20033;-75
2021/08/25 04:45:11;;;;;;;10.63;8.32;;;14.60;99.90;;;;;;5063682;28;20078;-75
2021/08/25 04:47:36;;;;;;;10.82;8.05;;;14.60;99.90;;;;;;5058353;28;20045;-75
2021/08/25 04:50:03;;;;;;;13.32;7.97;;;14.50;99.90;;;;;;5064173;28;20028;-75
2021/08/25 04:52:28;;;;;;;10.80;7.25;;;14.50;99.90;;;;;;5071857;28;20033;-75
2021/08/25 04:54:55;;;;;;;9.95;6.95;;;14.50;99.90;;;;;;5073836;28;20079;-75
2021/08/25 04:57:21;;;;;;;10.95;7.53;;;14.50;99.90;;;;;;5069626;28;20060;-76
2021/08/25 04:59:46;;;;;;;10.02;7.57;;;14.50;99.90;;;;;;5063616;28;20465;-75
2021/08/25 05:02:12;;;;;;;8.88;7.15;;;14.50;99.90;;;;;;5069480;28;20020;-75
2021/08/25 05:04:37;;;;;;;10.18;7.63;;;14.50;99.90;;;;;;5062944;28;20033;-75
2021/08/25 05:07:03;;;;;;;8.93;7.28;;;14.50;99.90;;;;;;5067630;28;20025;-75
2021/08/25 05:09:29;;;;;;;7.68;6.50;;;14.40;99.90;;;;;;5073623;28;20024;-75
2021/08/25 05:11:55;;;;;;;8.77;6.40;;;14.40;99.90;;;;;;5069894;28;20029;-75
2021/08/25 05:14:21;;;;;;;10.07;6.43;;;14.40;99.90;;;;;;5071389;28;20112;-74
2021/08/25 05:16:47;;;;;;;10.07;6.03;;;14.40;99.90;;;;;;5056426;28;20032;-74
2021/08/25 05:19:12;;;;;;;9.55;5.93;;;14.40;99.90;;;;;;5066307;28;20028;-75
2021/08/25 05:21:38;;;;;;;8.70;6.00;;;14.30;99.90;;;;;;5065350;28;20106;-74
2021/08/25 05:24:04;;;;;;;7.47;6.20;;;14.40;99.90;;;;;;5065490;28;20090;-75
2021/08/25 05:26:30;;;;;;;6.97;6.28;;;14.40;99.90;;;;;;5044576;28;20024;-75
2021/08/25 05:28:58;;;;;;;7.70;6.63;;;14.40;99.90;;;;;;5066101;28;20103;-75
2021/08/25 05:31:24;;;;;;;9.82;7.35;;;14.40;99.90;;;;;;5063380;28;20043;-75
2021/08/25 05:33:50;;;;;;;10.27;6.80;;;14.40;99.90;;;;;;5067648;28;20032;-76
2021/08/25 05:36:16;;;;;;;8.98;7.40;;;14.40;99.90;;;;;;5068342;28;20040;-75
2021/08/25 05:38:42;;;;;;;12.98;6.40;;;14.40;99.90;;;;;;5065876;28;20396;-75
2021/08/25 05:41:07;;;;;;;8.85;6.57;;;14.40;99.90;;;;;;5061300;28;20031;-75
2021/08/25 05:43:34;;;;;;;9.45;7.68;;;14.40;99.90;;;;;;5064700;28;20021;-74
2021/08/25 05:45:59;;;;;;;9.48;8.05;;;14.50;99.90;;;;;;5067549;28;20035;-74
2021/08/25 05:48:25;;;;;;;11.38;7.70;;;14.40;99.90;;;;;;5064812;28;20029;-75
2021/08/25 05:50:51;;;;;;;11.98;8.82;;;14.50;99.90;;;;;;5065586;28;20499;-75
2021/08/25 05:53:17;;;;;;;13.20;8.70;;;14.40;99.90;;;;;;5063157;28;20063;-74
2021/08/25 05:55:43;;;;;;;9.40;7.72;;;14.50;99.90;;;;;;5064187;28;20126;-75
2021/08/25 05:58:08;;;;;;;13.32;8.82;;;14.50;99.90;;;;;;5068659;28;20028;-74
2021/08/25 06:00:34;;;;;;;12.48;8.75;;;14.50;99.90;;;;;;5066133;28;20025;-75
2021/08/25 06:03:00;;;;;;;12.52;9.15;;;14.40;99.90;;;;;;5068109;28;20362;-74
2021/08/25 06:05:26;;;;;;;12.27;8.50;;;14.50;99.90;;;;;;5062461;28;20033;-75
2021/08/25 06:07:53;;;;;;;10.68;8.43;;;14.50;99.90;;;;;;5065360;28;20082;-75
2021/08/25 06:10:19;;;;;;;14.63;9.32;;;14.50;99.90;;;;;;5067619;28;20111;-75
2021/08/25 06:12:45;;;;;;;11.57;9.63;;;14.50;99.90;;;;;;5062226;28;20021;-75
2021/08/25 06:15:11;;;;;;;13.75;10.00;;;14.50;99.90;;;;;;5067561;28;20040;-74
2021/08/25 06:17:36;;;;;;;13.65;10.38;;;14.50;99.90;;;;;;5071072;28;20039;-75
2021/08/25 06:20:04;;;;;;;13.40;9.90;;;14.50;99.90;;;;;;5070278;28;20033;-75
2021/08/25 06:22:30;;;;;;;12.48;9.38;;;14.50;99.90;;;;;;5063728;28;20345;-74
2021/08/25 06:24:56;;;;;;;12.40;9.73;;;14.60;99.90;;;;;;5066483;28;20085;-74
2021/08/25 06:27:22;;;;;;;13.80;10.05;;;14.60;99.90;;;;;;5064104;28;20074;-75
2021/08/25 06:29:47;;;;;;;11.20;9.95;;;14.60;99.90;;;;;;5061997;28;20020;-75
2021/08/25 06:32:13;;;;;;;11.95;9.40;;;14.70;99.90;;;;;;5066936;28;20036;-75
2021/08/25 06:34:39;;;;;;;11.23;9.57;;;14.70;99.90;;;;;;5064119;28;20044;-75
2021/08/25 06:37:04;;;;;;;18.70;11.65;;;14.70;99.90;;;;;;5064156;28;20019;-75
2021/08/25 06:39:30;;;;;;;12.27;10.25;;;14.70;99.90;;;;;;5063665;28;20401;-74
2021/08/25 06:41:56;;;;;;;10.75;8.60;;;14.80;99.90;;;;;;5064975;28;20028;-75
2021/08/25 06:44:21;;;;;;;10.57;9.35;;;14.80;99.90;;;;;;5068368;28;20358;-75
2021/08/25 06:46:48;;;;;;;14.20;11.38;;;14.80;99.90;;;;;;5068756;28;20035;-75
2021/08/25 06:49:14;;;;;;;11.63;9.15;;;14.90;99.90;;;;;;5068222;28;20435;-75
2021/08/25 06:51:39;;;;;;;12.15;9.45;;;14.90;99.90;;;;;;5064654;28;20028;-75
2021/08/25 06:54:05;;;;;;;14.75;10.60;;;14.90;99.90;;;;;;5051492;28;20031;-75
2021/08/25 06:56:30;;;;;;;15.60;11.68;;;14.90;99.90;;;;;;5070750;28;20044;-75
2021/08/25 06:58:56;;;;;;;15.10;11.63;;;14.90;99.90;;;;;;5043829;28;20026;-75
2021/08/25 07:01:22;;;;;;;16.60;12.45;;;15.00;99.90;;;;;;5064669;28;20040;-75
2021/08/25 07:03:48;;;;;;;14.73;11.75;;;15.00;99.90;;;;;;5064939;28;20025;-75
2021/08/25 07:06:13;;;;;;;17.30;13.88;;;15.10;99.90;;;;;;5064174;28;20033;-75
2021/08/25 07:08:39;;;;;;;15.75;12.75;;;15.10;99.90;;;;;;5058343;28;20066;-76
2021/08/25 07:11:04;;;;;;;17.33;14.07;;;15.10;99.90;;;;;;5069530;28;20021;-75
2021/08/25 07:13:30;;;;;;;18.92;13.30;;;15.20;99.90;;;;;;5063162;28;20031;-75
2021/08/25 07:15:56;;;;;;;19.13;13.07;;;15.20;99.90;;;;;;5060128;28;20041;-75
2021/08/25 07:18:21;;;;;;;15.30;11.73;;;15.30;99.90;;;;;;5066153;28;20120;-75
2021/08/25 07:20:47;;;;;;;22.70;14.43;;;15.30;99.90;;;;;;5060307;28;20107;-75
2021/08/25 07:23:13;;;;;;;21.23;14.65;;;15.30;99.90;;;;;;5068984;28;21012;-75
2021/08/25 07:25:40;;;;;;;19.70;12.13;;;15.40;99.90;;;;;;5046992;28;20021;-74
2021/08/25 07:28:06;;;;;;;16.42;12.90;;;15.40;99.90;;;;;;5065523;28;20062;-74
2021/08/25 07:30:31;;;;;;;17.27;12.73;;;15.50;99.90;;;;;;5070100;28;20098;-75
2021/08/25 07:32:57;;;;;;;19.35;13.50;;;15.50;99.90;;;;;;5070287;28;20107;-75
2021/08/25 07:35:24;;;;;;;21.40;12.75;;;15.60;99.90;;;;;;5061691;28;20032;-75
2021/08/25 07:37:50;;;;;;;21.10;13.20;;;15.60;99.90;;;;;;5066872;28;20052;-75
2021/08/25 07:40:15;;;;;;;16.15;11.60;;;15.70;99.90;;;;;;5068895;28;20048;-75
2021/08/25 07:42:41;;;;;;;13.82;10.82;;;15.80;99.90;;;;;;5065602;28;20082;-75
2021/08/25 07:45:08;;;;;;;15.25;11.15;;;15.90;99.90;;;;;;5062003;28;20419;-75
2021/08/25 07:47:34;;;;;;;18.70;11.90;;;16.00;99.90;;;;;;5048827;28;20436;-75
2021/08/25 07:50:00;;;;;;;16.92;12.32;;;16.10;99.90;;;;;;5064835;28;20028;-75
2021/08/25 07:52:25;;;;;;;17.15;11.45;;;16.20;99.90;;;;;;5061649;28;20055;-75
2021/08/25 07:54:51;;;;;;;15.35;10.40;;;16.30;99.90;;;;;;5047611;28;20040;-76
2021/08/25 07:57:17;;;;;;;16.45;9.95;;;16.30;99.90;;;;;;5068234;28;20496;-76
2021/08/25 07:59:42;;;;;;;14.48;9.52;;;16.40;99.90;;;;;;5066320;28;20104;-75
2021/08/25 08:02:08;;;;;;;14.38;9.13;;;16.50;99.90;;;;;;5071900;28;20067;-76
2021/08/25 08:04:33;;;;;;;16.20;8.60;;;16.70;99.90;;;;;;5073139;28;20538;-76
2021/08/25 08:06:59;;;;;;;13.70;9.82;;;16.80;99.90;;;;;;5055592;28;20029;-75
2021/08/25 08:09:24;;;;;;;14.93;7.97;;;17.00;99.90;;;;;;5068971;28;20182;-75
2021/08/25 08:11:50;;;;;;;13.23;8.63;;;17.10;99.90;;;;;;5068307;28;20055;-76
2021/08/25 08:14:16;;;;;;;13.93;8.82;;;17.30;99.90;;;;;;5066863;28;20028;-75
2021/08/25 08:16:45;;;;;;;12.32;8.63;;;17.30;99.90;;;;;;5066691;28;20111;-76
2021/08/25 08:19:19;;;;;;;14.75;8.20;;;17.40;99.90;;;;;;5068950;28;20039;-75
2021/08/25 08:21:45;;;;;;;11.10;8.05;;;17.50;99.90;;;;;;5067607;28;20389;-76
2021/08/25 08:24:11;;;;;;;12.68;7.78;;;17.60;99.90;;;;;;5068363;28;20385;-76
2021/08/25 08:26:37;;;;;;;13.13;7.43;;;17.70;99.90;;;;;;5057151;28;20017;-76
2021/08/25 08:29:04;;;;;;;14.90;8.25;;;17.80;99.90;;;;;;5072174;28;20047;-75
2021/08/25 08:31:29;;;;;;;13.77;8.30;;;17.90;99.90;;;;;;5068481;28;20400;-76
2021/08/25 08:33:55;;;;;;;10.80;7.72;;;17.90;99.90;;;;;;5065983;28;20024;-76
2021/08/25 08:36:21;;;;;;;12.27;7.68;;;18.00;99.90;;;;;;5070441;28;20043;-75
2021/08/25 08:38:47;;;;;;;12.77;7.47;;;18.10;99.90;;;;;;5063139;28;20033;-75
2021/08/25 08:41:13;;;;;;;11.25;7.63;;;18.20;99.90;;;;;;5071936;28;20024;-76
2021/08/25 08:43:44;;;;;;;12.93;7.22;;;18.30;99.90;;;;;;5067604;28;20385;-76
2021/08/25 08:46:14;;;;;;;14.15;8.20;;;18.40;99.90;;;;;;5056397;28;20036;-76
2021/08/25 08:48:41;;;;;;;10.20;7.95;;;18.50;99.90;;;;;;5053270;28;20029;-76
2021/08/25 08:51:09;;;;;;;12.38;8.43;;;18.60;99.90;;;;;;5065646;28;20020;-77
2021/08/25 08:53:35;;;;;;;9.80;6.95;;;18.70;99.90;;;;;;5051468;28;20120;-76
2021/08/25 08:56:00;;;;;;;11.30;6.80;;;18.80;99.90;;;;;;5063048;28;20051;-76
2021/08/25 08:58:26;;;;;;;9.35;5.97;;;19.00;99.90;;;;;;5067082;28;20028;-76
2021/08/25 09:00:51;;;;;;;12.50;6.47;;;19.10;99.90;;;;;;5069442;28;20090;-76
2021/08/25 09:03:22;;;;;;;8.63;5.97;;;19.20;99.90;;;;;;5065644;28;20075;-76
2021/08/25 09:05:57;;;;;;;12.90;7.25;;;19.40;99.90;;;;;;5062379;28;20047;-76
2021/08/25 09:08:26;;;;;;;11.05;7.72;;;19.40;99.90;;;;;;5047978;28;20050;-77
2021/08/25 09:11:09;;;;;;;13.25;6.40;;;19.40;99.90;;;;;;5052744;28;20481;-76
2021/08/25 09:13:47;;;;;;;10.45;6.35;;;19.60;99.90;;;;;;5068302;28;20388;-76
2021/08/25 09:16:30;;;;;;;11.63;6.85;;;19.80;99.90;;;;;;5066069;28;20064;-76
2021/08/25 09:19:08;;;;;;;;;;;19.90;99.90;;;;;;5071974;28;20021;-76
2021/08/25 09:21:50;;;;;;;38.22;10.65;;;20.10;99.90;;;;;;5062099;28;19955;-76
2021/08/25 09:24:16;;;;;;;8.80;5.95;;;20.30;99.90;;;;;;5064078;28;20480;-76
2021/08/25 09:27:08;;;;;;;8.73;5.22;;;20.40;99.90;;;;;;5065300;28;20051;-76
2021/08/25 09:29:35;;;;;;;8.20;5.40;;;20.50;99.90;;;;;;5044434;28;20056;-76
2021/08/25 09:32:01;;;;;;;7.68;5.15;;;20.70;99.90;;;;;;5062796;28;20031;-77
2021/08/25 09:34:28;;;;;;;8.25;5.10;;;20.80;99.90;;;;;;5066746;28;20029;-76
2021/08/25 09:37:17;;;;;;;10.70;5.07;;;20.90;99.90;;;;;;5046808;28;20020;-76
2021/08/25 09:39:51;;;;;;;7.93;5.53;;;21.00;99.90;;;;;;5050888;28;20040;-76
2021/08/25 09:42:20;;;;;;;8.50;5.68;;;21.20;99.90;;;;;;5055274;28;20051;-76
2021/08/25 09:44:58;;;;;;;7.32;4.70;;;21.20;99.90;;;;;;5071342;28;20029;-76
2021/08/25 09:47:44;;;;;;;10.70;5.13;;;21.40;99.90;;;;;;5069627;28;20032;-76
2021/08/25 09:50:10;;;;;;;7.72;5.03;;;21.50;99.90;;;;;;5063774;28;20025;-76
2021/08/25 09:52:36;;;;;;;5.68;4.05;;;21.70;99.90;;;;;;5066671;28;20043;-76
2021/08/25 09:55:01;;;;;;;6.03;4.30;;;21.70;99.90;;;;;;5068468;28;20131;-77
2021/08/25 09:57:41;;;;;;;8.38;4.70;;;21.80;99.90;;;;;;5054426;28;20021;-77
2021/08/25 10:00:09;;;;;;;6.40;4.55;;;21.90;99.90;;;;;;5066302;28;20028;-76
2021/08/25 10:02:35;;;;;;;6.10;4.28;;;22.10;99.90;;;;;;5064343;28;20083;-76
2021/08/25 10:05:01;;;;;;;5.65;4.03;;;22.10;99.90;;;;;;5060346;28;20473;-76
2021/08/25 10:07:28;;;;;;;5.03;3.92;;;22.20;99.90;;;;;;5065757;28;20085;-76
2021/08/25 10:09:55;;;;;;;5.45;3.55;;;22.30;99.90;;;;;;5051922;28;20024;-76
2021/08/25 10:12:25;;;;;;;5.65;3.55;;;22.40;99.90;;;;;;5062668;28;20037;-75
2021/08/25 10:14:51;;;;;;;6.20;4.00;;;22.30;99.90;;;;;;5036985;28;20481;-76
2021/08/25 10:17:51;;;;;;;6.88;3.65;;;22.50;99.90;;;;;;5067048;28;20392;-76
2021/08/25 10:20:35;;;;;;;6.15;3.80;;;22.60;99.90;;;;;;5013087;28;20566;-76
2021/08/25 10:23:03;;;;;;;6.65;3.75;;;22.50;99.90;;;;;;5068349;28;20443;-76
2021/08/25 10:25:29;;;;;;;5.80;3.38;;;22.70;99.90;;;;;;5067772;28;20473;-76
2021/08/25 10:28:03;;;;;;;6.45;3.92;;;22.80;99.90;;;;;;5067941;28;20033;-76
2021/08/25 10:30:30;;;;;;;5.25;3.42;;;22.90;99.90;;;;;;5051464;28;20033;-76
2021/08/25 10:33:01;;;;;;;4.82;3.55;;;22.90;99.90;;;;;;5039120;28;20060;-76
2021/08/25 10:35:32;;;;;;;4.88;3.70;;;23.00;99.90;;;;;;5068219;28;20442;-76
2021/08/25 10:38:21;;;;;;;3.88;3.10;;;23.00;99.90;;;;;;5064800;28;20078;-75
2021/08/25 10:40:48;;;;;;;4.40;2.88;;;23.30;98.60;;;;;;5049583;28;20029;-76
2021/08/25 10:43:52;;;;;;;4.95;4.05;;;23.40;98.50;;;;;;5068018;28;20028;-76
2021/08/25 10:46:19;;;;;;;4.53;3.03;;;23.50;98.00;;;;;;5070712;28;20048;-76
2021/08/25 10:48:56;;;;;;;6.18;3.75;;;23.60;99.10;;;;;;5065626;28;20099;-75
2021/08/25 10:51:36;;;;;;;7.97;3.38;;;23.70;98.80;;;;;;5058673;28;20079;-76
2021/08/25 10:54:05;;;;;;;6.97;3.60;;;23.80;98.40;;;;;;5062680;28;20025;-76
2021/08/25 10:56:34;;;;;;;3.83;2.80;;;23.80;97.70;;;;;;5064757;28;20044;-76
2021/08/25 10:59:05;;;;;;;4.45;3.38;;;23.80;97.60;;;;;;5064875;28;20020;-76
2021/08/25 11:01:35;;;;;;;4.82;3.33;;;24.00;96.20;;;;;;5064218;28;20021;-75
2021/08/25 11:04:04;;;;;;;6.90;3.90;;;24.00;99.90;;;;;;5071506;28;20024;-76
2021/08/25 11:06:30;;;;;;;6.90;3.88;;;24.00;99.90;;;;;;5059126;28;20024;-77
2021/08/25 11:09:10;;;;;;;6.88;3.92;;;24.00;99.30;;;;;;5059465;28;20028;-75
2021/08/25 11:11:37;;;;;;;5.20;4.07;;;24.10;97.90;;;;;;5061913;28;20158;-76
2021/08/25 11:14:02;;;;;;;4.53;3.35;;;24.20;97.80;;;;;;5042128;28;20024;-76
2021/08/25 11:16:28;;;;;;;6.60;4.25;;;24.30;99.10;;;;;;5067347;28;20480;-76
2021/08/25 11:18:54;;;;;;;6.63;3.50;;;24.20;95.80;;;;;;5064514;28;20028;-76
2021/08/25 11:21:19;;;;;;;4.40;3.08;;;24.20;98.00;;;;;;5066317;28;20032;-76
2021/08/25 11:23:53;;;;;;;5.15;3.55;;;24.20;99.50;;;;;;5065720;28;20515;-76
2021/08/25 11:26:19;;;;;;;6.50;3.40;;;24.10;98.90;;;;;;5066946;28;20040;-76
2021/08/25 11:28:44;;;;;;;5.05;3.45;;;24.20;98.10;;;;;;5069528;28;20037;-75
2021/08/25 11:31:10;;;;;;;4.82;3.42;;;24.30;98.10;;;;;;5067510;28;20047;-76
2021/08/25 11:33:44;;;;;;;5.18;3.15;;;24.30;97.80;;;;;;5065381;28;20029;-77
2021/08/25 11:36:10;;;;;;;4.43;3.33;;;24.40;98.30;;;;;;5067369;28;20033;-76
2021/08/25 11:38:36;;;;;;;4.78;3.47;;;24.50;96.90;;;;;;5063611;28;20024;-76
2021/08/25 11:41:02;;;;;;;4.80;3.65;;;24.70;96.30;;;;;;5065919;28;20023;-76
2021/08/25 11:43:27;;;;;;;5.43;3.95;;;24.70;97.30;;;;;;5063945;28;20055;-76
2021/08/25 11:45:56;;;;;;;6.93;3.38;;;24.80;97.90;;;;;;5065084;28;20107;-76
2021/08/25 11:48:29;;;;;;;3.92;3.33;;;24.90;97.10;;;;;;5074420;28;20636;-76
2021/08/25 11:50:57;;;;;;;4.53;3.50;;;24.80;97.20;;;;;;5073123;28;20485;-76
2021/08/25 11:53:25;;;;;;;5.65;3.90;;;24.80;97.50;;;;;;5055747;28;20279;-76
2021/08/25 11:55:54;;;;;;;5.55;4.07;;;24.90;97.70;;;;;;5065629;28;20044;-76
2021/08/25 11:58:26;;;;;;;5.85;3.83;;;25.00;97.80;;;;;;5063782;28;20021;-76
2021/08/25 12:00:53;;;;;;;;;;;25.00;95.60;;;;;;5069857;28;20488;-76
2021/08/25 12:03:18;;;;;;;4.95;3.70;;;24.90;95.70;;;;;;5069809;28;19904;-77
2021/08/25 12:05:55;;;;;;;5.35;3.72;;;25.10;96.10;;;;;;5069334;28;20024;-76
2021/08/25 12:08:21;;;;;;;5.68;3.40;;;25.10;97.20;;;;;;5064137;28;20028;-76
2021/08/25 12:11:07;;;;;;;5.70;3.45;;;25.10;97.20;;;;;;5068333;28;20079;-76
2021/08/25 12:13:38;;;;;;;4.88;3.40;;;25.20;97.20;;;;;;5065869;28;20105;-77
2021/08/25 12:16:10;;;;;;;7.72;3.28;;;25.20;96.70;;;;;;5069652;28;20040;-76
2021/08/25 12:18:51;;;;;;;4.25;3.42;;;25.20;96.90;;;;;;5052716;28;20104;-76
2021/08/25 12:21:17;;;;;;;5.07;3.28;;;25.30;96.40;;;;;;5064190;28;20450;-76
2021/08/25 12:24:09;;;;;;;6.43;3.50;;;25.30;95.40;;;;;;5069110;28;20025;-76
2021/08/25 12:26:38;;;;;;;4.43;3.03;;;25.40;96.30;;;;;;5069516;28;20032;-76
2021/08/25 12:29:06;;;;;;;4.20;3.45;;;25.40;95.10;;;;;;5069218;28;20066;-76
2021/08/25 12:31:34;;;;;;;4.97;3.38;;;25.40;96.60;;;;;;5063454;28;20101;-76
2021/08/25 12:34:11;;;;;;;5.28;3.72;;;25.40;97.00;;;;;;5070019;28;20032;-76
2021/08/25 12:36:51;;;;;;;6.20;3.85;;;25.30;97.10;;;;;;5071757;28;20028;-76
2021/08/25 12:39:19;;;;;;;5.05;3.58;;;25.30;97.60;;;;;;5070167;28;20033;-76
2021/08/25 12:41:46;;;;;;;5.30;3.55;;;25.40;95.90;;;;;;5064755;28;20028;-76
2021/08/25 12:44:12;;;;;;;5.60;3.63;;;25.40;96.70;;;;;;5064354;28;20024;-76